Time;durP1;ratioP1;P1;durP2;ratioP2;P2;SDS_P1;SDS_P2;PMS_P1;PMS_P2;Temp;Humidity;BMP_temperature;BMP_pressure;BME280_temperature;BME280_humidity;BME280_pressure;Samples;Min_cycle;Max_cycle;Signal;HPM_P1;HPM_P2
2022/09/07 00:01:22;;;;;;;10.55;5.47;;;;;;;18.50;100.00;101315.53;4968234;28;20048;-85
2022/09/07 00:03:54;;;;;;;5.57;5.07;;;;;;;18.50;100.00;101314.66;4980437;28;20053;-85
2022/09/07 00:06:23;;;;;;;9.50;6.20;;;;;;;18.48;100.00;101312.03;5018087;28;20052;-84
2022/09/07 00:08:55;;;;;;;8.07;5.55;;;;;;;18.48;100.00;101317.38;5016402;28;20058;-83
2022/09/07 00:11:23;;;;;;;7.28;6.50;;;;;;;18.46;100.00;101307.66;5015585;28;20060;-83
2022/09/07 00:13:52;;;;;;;6.80;6.10;;;;;;;18.44;100.00;101293.47;4953184;28;20053;-83
2022/09/07 00:16:26;;;;;;;7.20;5.43;;;;;;;18.42;100.00;101300.63;5016004;28;20045;-84
2022/09/07 00:18:59;;;;;;;9.18;5.72;;;;;;;18.39;100.00;101284.69;5006831;28;20018;-83
2022/09/07 00:21:28;;;;;;;11.10;6.97;;;;;;;18.38;100.00;101277.59;5016787;28;20046;-83
2022/09/07 00:23:57;;;;;;;8.98;6.47;;;;;;;18.37;100.00;101273.16;5016162;28;20040;-84
2022/09/07 00:26:29;;;;;;;11.00;6.22;;;;;;;18.34;100.00;101276.78;5001114;28;20511;-83
2022/09/07 00:28:59;;;;;;;7.35;6.22;;;;;;;18.35;100.00;101277.66;5002810;28;20034;-83
2022/09/07 00:31:31;;;;;;;9.45;6.28;;;;;;;18.37;100.00;101282.03;5017488;28;20042;-86
2022/09/07 00:34:00;;;;;;;6.05;5.47;;;;;;;18.41;100.00;101283.75;5005700;28;20042;-83
2022/09/07 00:36:31;;;;;;;6.47;5.95;;;;;;;18.44;100.00;101280.13;5000621;28;20050;-84
2022/09/07 00:38:59;;;;;;;8.60;7.20;;;;;;;18.44;100.00;101283.66;5016652;28;20049;-83
2022/09/07 00:41:28;;;;;;;12.93;6.75;;;;;;;18.45;100.00;101285.44;4984737;28;20498;-84
2022/09/07 00:44:17;;;;;;;10.05;5.75;;;;;;;18.47;100.00;101283.59;4998201;28;20038;-83
2022/09/07 00:46:46;;;;;;;7.37;5.97;;;;;;;18.46;100.00;101276.50;5021031;28;20068;-83
2022/09/07 00:49:22;;;;;;;8.13;6.47;;;;;;;18.43;100.00;101279.25;5041244;28;20037;-86
2022/09/07 00:51:56;;;;;;;9.35;5.85;;;;;;;18.41;100.00;101278.41;5019176;28;20038;-83
2022/09/07 00:54:30;;;;;;;7.72;6.40;;;;;;;18.41;100.00;101298.84;5013861;28;20038;-84
2022/09/07 00:57:00;;;;;;;8.52;7.57;;;;;;;18.41;100.00;101304.19;5033560;28;20046;-83
2022/09/07 00:59:34;;;;;;;8.32;6.72;;;;;;;18.40;100.00;101308.66;5016694;28;20038;-83
2022/09/07 01:02:04;;;;;;;7.85;6.93;;;;;;;18.40;100.00;101310.47;5016906;28;20473;-84
2022/09/07 01:04:40;;;;;;;8.30;7.30;;;;;;;18.38;100.00;101298.94;5028042;28;20048;-83
2022/09/07 01:07:09;;;;;;;9.98;6.47;;;;;;;18.38;100.00;101301.63;5003177;28;20047;-84
2022/09/07 01:09:39;;;;;;;9.00;6.70;;;;;;;18.39;100.00;101298.91;5005853;28;20033;-84
2022/09/07 01:12:08;;;;;;;8.02;6.13;;;;;;;18.40;100.00;101299.78;4997640;28;20075;-83
2022/09/07 01:14:46;;;;;;;14.07;6.70;;;;;;;18.41;100.00;101288.19;5012684;28;20045;-83
2022/09/07 01:17:41;;;;;;;8.45;6.00;;;;;;;18.40;100.00;101281.97;5006672;28;20058;-83
2022/09/07 01:20:42;;;;;;;10.18;6.50;;;;;;;18.40;100.00;101294.44;5016867;28;20057;-84
2022/09/07 01:23:27;;;;;;;9.50;6.47;;;;;;;18.38;100.00;101306.94;5034365;28;20045;-83
2022/09/07 01:26:22;;;;;;;8.95;7.20;;;;;;;18.36;100.00;101301.66;5018184;28;20056;-83
2022/09/07 01:29:18;;;;;;;12.55;6.65;;;;;;;18.34;100.00;101295.47;5013909;28;20060;-84
2022/09/07 01:32:14;;;;;;;8.02;7.20;;;;;;;18.31;100.00;101292.84;5015063;28;20049;-83
2022/09/07 01:34:48;;;;;;;8.32;7.63;;;;;;;18.29;100.00;101305.34;5025045;28;20050;-85
2022/09/07 01:37:35;;;;;;;8.98;7.82;;;;;;;18.22;100.00;101304.63;4992277;28;20051;-84
2022/09/07 01:40:12;;;;;;;10.02;7.15;;;;;;;18.17;100.00;101295.81;5029922;28;20033;-85
2022/09/07 01:43:05;;;;;;;8.52;7.47;;;;;;;18.14;100.00;101303.88;5029325;28;20053;-84
2022/09/07 01:45:38;;;;;;;9.05;7.82;;;;;;;18.11;100.00;101363.50;5051444;28;20750;-83
2022/09/07 01:48:12;;;;;;;9.68;8.63;;;;;;;18.06;100.00;101405.38;5031800;28;20181;-83
2022/09/07 01:51:00;;;;;;;10.13;8.45;;;;;;;17.99;100.00;101414.41;4997055;28;20030;-83
2022/09/07 01:53:38;;;;;;;13.35;8.95;;;;;;;17.96;100.00;101434.91;5032634;28;20049;-82
2022/09/07 01:56:17;;;;;;;10.50;9.38;;;;;;;17.92;100.00;101434.09;5029972;28;20273;-83
2022/09/07 01:58:57;;;;;;;20.05;9.82;;;;;;;17.88;100.00;101419.94;5003240;28;20038;-83
2022/09/07 02:02:02;;;;;;;23.13;11.07;;;;;;;17.78;100.00;101409.44;4992082;28;20517;-84
2022/09/07 02:04:44;;;;;;;13.50;10.55;;;;;;;17.65;100.00;101420.28;5020066;28;20056;-83
2022/09/07 02:07:38;;;;;;;20.55;11.82;;;;;;;17.56;100.00;101415.16;5024340;28;20163;-83
2022/09/07 02:10:15;;;;;;;13.43;11.32;;;;;;;17.49;100.00;101416.16;5023731;28;20044;-83
2022/09/07 02:12:52;;;;;;;17.13;12.20;;;;;;;17.44;100.00;101408.22;4997496;28;20419;-83
2022/09/07 02:15:49;;;;;;;13.90;11.55;;;;;;;17.40;100.00;101387.88;5021498;28;20041;-83
2022/09/07 02:18:20;;;;;;;14.00;10.80;;;;;;;17.35;100.00;101365.75;5009706;28;20042;-83
2022/09/07 02:20:53;;;;;;;11.63;10.35;;;;;;;17.34;100.00;101356.88;4986458;28;20052;-83
2022/09/07 02:23:27;;;;;;;18.23;11.93;;;;;;;17.33;100.00;101347.16;5007570;28;20039;-84
2022/09/07 02:26:02;;;;;;;13.68;11.68;;;;;;;17.31;100.00;101359.59;5006332;28;20041;-84
2022/09/07 02:28:33;;;;;;;19.17;12.60;;;;;;;17.26;100.00;101358.81;5028133;28;20056;-84
2022/09/07 02:31:01;;;;;;;13.88;12.48;;;;;;;17.19;100.00;101348.28;5023294;28;20072;-83
2022/09/07 02:33:30;;;;;;;15.52;12.05;;;;;;;17.11;100.00;101337.75;5023511;28;20042;-83
2022/09/07 02:36:00;;;;;;;18.30;11.48;;;;;;;17.04;100.00;101331.63;5008070;28;20042;-84
2022/09/07 02:38:30;;;;;;;13.20;11.90;;;;;;;16.99;100.00;101316.63;4988443;28;20057;-84
2022/09/07 02:41:00;;;;;;;14.18;11.70;;;;;;;16.95;100.00;101305.16;5005463;28;20033;-84
2022/09/07 02:43:31;;;;;;;17.05;10.82;;;;;;;16.92;100.00;101274.16;5000813;28;20056;-84
2022/09/07 02:46:35;;;;;;;;;;;;;;;16.91;100.00;101271.50;5022505;28;20053;-83
2022/09/07 02:49:28;;;;;;;13.85;12.48;;;;;;;16.86;100.00;101270.69;4958301;28;19921;-83
2022/09/07 02:52:05;;;;;;;15.80;11.65;;;;;;;16.84;100.00;101272.50;5019315;28;20049;-83
2022/09/07 02:55:12;;;;;;;15.98;12.32;;;;;;;16.80;100.00;101255.66;5000527;28;20403;-83
2022/09/07 02:58:20;;;;;;;13.90;11.68;;;;;;;16.81;100.00;101259.22;4989708;28;20046;-83
2022/09/07 03:01:01;;;;;;;15.95;13.52;;;;;;;16.84;100.00;101261.84;5027761;28;20045;-83
2022/09/07 03:03:43;;;;;;;14.75;13.18;;;;;;;16.84;100.00;101269.84;5014429;28;20046;-83
2022/09/07 03:07:08;;;;;;;14.88;13.38;;;;;;;16.82;100.00;101275.19;5025506;28;20080;-83
2022/09/07 03:09:41;;;;;;;17.50;13.65;;;;;;;16.83;100.00;101282.28;4923553;28;20499;-84
2022/09/07 03:12:11;;;;;;;16.30;14.32;;;;;;;16.86;100.00;101289.31;5015047;28;20261;-84
2022/09/07 03:14:42;;;;;;;16.42;14.77;;;;;;;16.88;100.00;101298.16;5015597;28;20044;-83
2022/09/07 03:17:11;;;;;;;15.43;13.10;;;;;;;16.89;100.00;101284.81;5000472;28;20486;-82
2022/09/07 03:19:40;;;;;;;16.42;13.55;;;;;;;16.89;100.00;101284.81;4979272;28;20054;-84
2022/09/07 03:22:08;;;;;;;15.40;13.60;;;;;;;16.90;100.00;101278.63;5008020;28;20053;-84
2022/09/07 03:24:37;;;;;;;16.05;14.07;;;;;;;16.88;100.00;101261.78;4965280;28;20038;-83
2022/09/07 03:27:05;;;;;;;18.58;14.77;;;;;;;16.90;100.00;101261.75;5003281;28;20034;-83
2022/09/07 03:29:34;;;;;;;18.10;16.05;;;;;;;16.88;100.00;101255.56;4999393;28;20041;-83
2022/09/07 03:32:07;;;;;;;16.98;15.00;;;;;;;16.86;100.00;101250.28;5010462;28;20703;-83
2022/09/07 03:34:35;;;;;;;16.10;13.93;;;;;;;16.83;100.00;101233.50;4969392;28;20057;-83
2022/09/07 03:37:04;;;;;;;20.83;12.77;;;;;;;16.81;100.00;101232.63;5015234;28;20223;-83
2022/09/07 03:39:34;;;;;;;13.15;11.85;;;;;;;16.82;100.00;101229.03;5017205;28;20054;-84
2022/09/07 03:42:03;;;;;;;13.65;12.25;;;;;;;16.84;100.00;101227.25;4964515;28;20033;-83
2022/09/07 03:44:31;;;;;;;16.27;14.27;;;;;;;16.85;100.00;101240.53;4993090;28;20058;-83
2022/09/07 03:47:00;;;;;;;13.82;12.45;;;;;;;16.84;100.00;101230.81;5008929;28;20068;-83
2022/09/07 03:49:28;;;;;;;17.63;15.45;;;;;;;16.83;100.00;101215.72;5024882;28;20030;-85
2022/09/07 03:51:56;;;;;;;18.13;14.25;;;;;;;16.84;100.00;101208.63;4976787;28;20052;-85
2022/09/07 03:54:25;;;;;;;15.23;13.07;;;;;;;16.84;100.00;101200.63;4961045;28;20061;-85
2022/09/07 03:56:53;;;;;;;17.52;15.30;;;;;;;16.87;100.00;101200.59;4951268;28;20053;-85
2022/09/07 03:59:22;;;;;;;17.38;14.32;;;;;;;16.88;100.00;101205.00;4990611;28;20065;-84
2022/09/07 04:01:51;;;;;;;17.88;14.13;;;;;;;16.86;100.00;101199.72;4976044;28;20038;-83
2022/09/07 04:04:19;;;;;;;20.63;15.68;;;;;;;16.83;100.00;101196.22;4999533;28;20054;-85
2022/09/07 04:06:47;;;;;;;17.23;14.52;;;;;;;16.81;100.00;101192.69;4991753;28;20410;-83
2022/09/07 04:09:16;;;;;;;19.58;14.93;;;;;;;16.80;100.00;101189.13;4991802;28;20050;-83
2022/09/07 04:11:44;;;;;;;15.48;13.88;;;;;;;16.81;100.00;101184.72;4965059;28;20029;-85
2022/09/07 04:14:14;;;;;;;19.52;15.18;;;;;;;16.83;100.00;101185.59;4980444;28;20053;-84
2022/09/07 04:16:44;;;;;;;18.38;14.80;;;;;;;16.83;100.00;101182.94;5022999;28;20034;-85
2022/09/07 04:19:13;;;;;;;17.58;13.13;;;;;;;16.82;100.00;101184.69;5009003;28;20081;-84
2022/09/07 04:21:44;;;;;;;16.95;14.88;;;;;;;16.82;100.00;101191.78;4998395;28;20041;-83
2022/09/07 04:24:17;;;;;;;17.80;14.93;;;;;;;16.81;100.00;101195.34;4991501;28;20041;-84
2022/09/07 04:26:45;;;;;;;18.02;16.17;;;;;;;16.79;100.00;101195.38;4960701;28;20033;-83
2022/09/07 04:29:14;;;;;;;20.17;13.70;;;;;;;16.77;100.00;101192.72;4997718;28;20041;-84
2022/09/07 04:31:42;;;;;;;16.75;14.82;;;;;;;16.73;100.00;101188.38;5002278;28;20049;-87
2022/09/07 04:34:11;;;;;;;17.48;15.68;;;;;;;16.70;100.00;101177.75;4983001;28;20050;-83
2022/09/07 04:36:39;;;;;;;20.42;15.75;;;;;;;16.64;100.00;101185.84;4990315;28;20042;-83
2022/09/07 04:39:09;;;;;;;19.67;16.92;;;;;;;16.57;100.00;101181.53;5004690;28;20271;-84
2022/09/07 04:41:38;;;;;;;24.25;18.13;;;;;;;16.51;100.00;101186.97;5016959;28;20038;-85
2022/09/07 04:44:06;;;;;;;18.60;16.73;;;;;;;16.46;100.00;101160.41;4973923;28;20058;-84
2022/09/07 04:46:36;;;;;;;20.85;18.63;;;;;;;16.44;100.00;101164.88;5002413;28;20056;-83
2022/09/07 04:49:11;;;;;;;20.75;18.25;;;;;;;16.44;100.00;101175.53;5042172;28;20065;-84
2022/09/07 04:51:41;;;;;;;20.33;17.83;;;;;;;16.42;100.00;101187.09;4985237;28;20042;-83
2022/09/07 04:54:10;;;;;;;21.00;18.77;;;;;;;16.39;100.00;101182.72;5014236;28;20061;-83
2022/09/07 04:56:38;;;;;;;23.15;18.23;;;;;;;16.40;100.00;101194.22;5021282;28;20048;-83
2022/09/07 04:59:07;;;;;;;19.88;17.88;;;;;;;16.37;100.00;101190.72;4971731;28;20044;-83
2022/09/07 05:01:36;;;;;;;23.75;19.20;;;;;;;16.34;100.00;101190.75;4997527;28;20041;-83
2022/09/07 05:04:04;;;;;;;21.02;18.85;;;;;;;16.33;100.00;101174.81;5027569;28;20045;-83
2022/09/07 05:06:33;;;;;;;24.55;20.08;;;;;;;16.33;100.00;101166.84;4992504;28;20050;-83
2022/09/07 05:09:01;;;;;;;19.95;17.10;;;;;;;16.33;100.00;101173.06;5004450;28;20057;-84
2022/09/07 05:11:30;;;;;;;22.95;20.65;;;;;;;16.30;100.00;101167.78;4990524;28;20049;-83
2022/09/07 05:14:00;;;;;;;21.77;18.42;;;;;;;16.32;100.00;101173.94;4968354;28;20038;-84
2022/09/07 05:16:29;;;;;;;;;;;;;;;16.30;100.00;101178.41;5011126;28;20503;-83
2022/09/07 05:19:01;;;;;;;;;;;;;;;16.29;100.00;101176.63;5007348;28;19932;-83
2022/09/07 05:21:31;;;;;;;24.77;19.73;;;;;;;16.29;100.00;101163.34;5021004;28;19921;-83
2022/09/07 05:24:00;;;;;;;21.50;19.38;;;;;;;16.30;100.00;101157.13;5015485;28;20030;-83
2022/09/07 05:26:32;;;;;;;22.20;19.95;;;;;;;16.30;100.00;101157.13;5019875;28;20533;-83
2022/09/07 05:29:03;;;;;;;21.52;19.23;;;;;;;16.29;100.00;101155.38;4974881;28;23261;-83
2022/09/07 05:31:51;;;;;;;24.33;18.77;;;;;;;16.28;100.00;101158.94;5001064;28;20049;-83
2022/09/07 05:34:20;;;;;;;19.75;17.65;;;;;;;16.33;100.00;101162.44;5038300;28;20045;-82
2022/09/07 05:36:57;;;;;;;21.60;19.27;;;;;;;16.37;100.00;101169.44;5010953;28;20034;-83
2022/09/07 05:39:26;;;;;;;19.75;17.65;;;;;;;16.39;100.00;101166.75;5018986;28;20084;-83
2022/09/07 05:41:55;;;;;;;23.73;19.75;;;;;;;16.42;100.00;101171.16;5022029;28;20037;-83
2022/09/07 05:44:24;;;;;;;21.52;19.25;;;;;;;16.46;100.00;101173.72;5010987;28;20053;-83
2022/09/07 05:47:13;;;;;;;22.95;19.58;;;;;;;16.48;100.00;101174.59;5009941;28;20534;-84
2022/09/07 05:49:41;;;;;;;25.00;19.98;;;;;;;16.50;100.00;101193.16;5004010;28;20042;-84
2022/09/07 05:52:10;;;;;;;20.00;18.10;;;;;;;16.51;100.00;101189.63;4974445;28;20398;-83
2022/09/07 05:54:39;;;;;;;19.92;17.90;;;;;;;16.52;100.00;101192.25;4973295;28;20596;-82
2022/09/07 05:57:10;;;;;;;20.58;18.48;;;;;;;16.54;100.00;101193.13;4980283;28;20045;-84
2022/09/07 05:59:39;;;;;;;20.60;18.33;;;;;;;16.58;100.00;101199.28;4986332;28;20466;-83
2022/09/07 06:02:13;;;;;;;22.10;19.80;;;;;;;16.61;100.00;101199.19;4987703;28;20045;-83
2022/09/07 06:04:41;;;;;;;24.60;20.02;;;;;;;16.62;100.00;101198.31;4984778;28;21257;-83
2022/09/07 06:07:14;;;;;;;21.33;18.90;;;;;;;16.67;100.00;101199.13;4980666;28;20038;-83
2022/09/07 06:09:50;;;;;;;24.50;19.87;;;;;;;16.69;100.00;101197.31;5025808;28;20046;-84
2022/09/07 06:12:38;;;;;;;21.23;19.02;;;;;;;16.72;100.00;101191.91;4987055;28;20342;-83
2022/09/07 06:15:07;;;;;;;22.95;20.40;;;;;;;16.74;100.00;101191.91;4961227;28;20095;-83
2022/09/07 06:17:35;;;;;;;25.67;19.33;;;;;;;16.76;100.00;101180.31;5006982;28;20038;-83
2022/09/07 06:20:05;;;;;;;20.00;18.00;;;;;;;16.80;100.00;101183.81;5000963;28;20045;-81
2022/09/07 06:22:35;;;;;;;22.67;19.35;;;;;;;16.83;100.00;101185.59;5012296;28;20046;-81
2022/09/07 06:25:04;;;;;;;22.90;20.40;;;;;;;16.87;100.00;101190.81;5010510;28;20042;-83
2022/09/07 06:27:32;;;;;;;22.42;19.45;;;;;;;16.91;100.00;101195.19;4994762;28;20068;-81
2022/09/07 06:30:01;;;;;;;20.13;17.98;;;;;;;16.95;100.00;101204.84;4987091;28;20041;-81
2022/09/07 06:32:29;;;;;;;24.67;21.70;;;;;;;17.04;100.00;101205.63;5006395;28;20053;-82
2022/09/07 06:35:14;;;;;;;22.35;20.05;;;;;;;17.09;100.00;101209.09;4981490;28;20033;-82
2022/09/07 06:37:42;;;;;;;25.63;20.77;;;;;;;17.13;100.00;101209.00;4988066;28;20415;-81
2022/09/07 06:40:11;;;;;;;25.48;21.10;;;;;;;17.17;100.00;101215.16;4989528;28;20809;-81
2022/09/07 06:42:40;;;;;;;21.40;19.23;;;;;;;17.21;100.00;101203.53;5015925;28;20054;-80
2022/09/07 06:45:10;;;;;;;24.23;19.65;;;;;;;17.25;100.00;101207.00;4979062;28;20072;-81
2022/09/07 06:47:39;;;;;;;25.05;20.10;;;;;;;17.30;100.00;101214.00;4990232;28;20049;-81
2022/09/07 06:50:08;;;;;;;21.13;18.92;;;;;;;17.31;100.00;101214.88;4974614;28;22318;-81
2022/09/07 06:52:37;;;;;;;25.38;20.00;;;;;;;17.32;100.00;101225.50;4994929;28;20036;-83
2022/09/07 06:55:26;;;;;;;21.58;19.27;;;;;;;17.36;100.00;101220.13;4987709;28;20038;-81
2022/09/07 06:57:55;;;;;;;21.20;18.55;;;;;;;17.39;100.00;101225.38;4994524;28;20029;-81
2022/09/07 07:00:23;;;;;;;22.30;16.70;;;;;;;17.43;100.00;101232.41;5013623;28;20305;-82
2022/09/07 07:02:52;;;;;;;23.73;18.90;;;;;;;17.51;100.00;101227.81;4962605;28;20048;-82
2022/09/07 07:05:21;;;;;;;20.98;18.88;;;;;;;17.54;100.00;101222.41;4983649;28;20720;-82
2022/09/07 07:07:49;;;;;;;20.70;18.52;;;;;;;17.58;100.00;101229.47;4978935;28;20048;-81
2022/09/07 07:10:17;;;;;;;20.00;16.92;;;;;;;17.60;100.00;101237.41;5014393;28;20046;-81
2022/09/07 07:12:56;;;;;;;19.40;17.50;;;;;;;17.62;100.00;101238.28;5015991;28;20049;-80
2022/09/07 07:15:29;;;;;;;18.15;16.27;;;;;;;17.71;100.00;101232.75;4994473;28;20042;-82
2022/09/07 07:17:58;;;;;;;17.73;15.88;;;;;;;17.78;100.00;101239.72;4964122;28;20056;-82
2022/09/07 07:20:46;;;;;;;19.30;17.35;;;;;;;17.90;100.00;101244.84;5008613;28;20034;-82
2022/09/07 07:23:15;;;;;;;17.67;15.80;;;;;;;18.05;100.00;101250.72;4971241;28;20053;-81
2022/09/07 07:25:43;;;;;;;18.73;16.80;;;;;;;18.14;100.00;101253.22;5000308;28;20037;-82
2022/09/07 07:28:12;;;;;;;19.65;17.65;;;;;;;18.22;100.00;101251.28;5008911;28;20076;-82
2022/09/07 07:31:03;;;;;;;17.50;15.63;;;;;;;18.29;100.00;101252.00;4972956;28;20049;-83
2022/09/07 07:33:56;;;;;;;15.75;13.75;;;;;;;18.36;100.00;101256.28;4976140;28;20517;-83
2022/09/07 07:36:26;;;;;;;19.13;17.27;;;;;;;18.44;100.00;101256.09;5019622;28;20057;-83
2022/09/07 07:38:56;;;;;;;15.30;13.80;;;;;;;18.49;100.00;101254.22;4996591;28;20037;-83
2022/09/07 07:41:30;;;;;;;14.07;12.43;;;;;;;18.48;100.00;101257.78;5013878;28;20054;-82
2022/09/07 07:44:19;;;;;;;16.75;13.52;;;;;;;18.44;100.00;101267.66;4998495;28;20560;-83
2022/09/07 07:46:49;;;;;;;16.75;13.93;;;;;;;18.43;100.00;101259.69;5020465;28;20060;-81
2022/09/07 07:49:19;;;;;;;15.40;13.80;;;;;;;18.43;100.00;101262.34;4943776;28;20042;-80
2022/09/07 07:51:47;;;;;;;14.23;12.77;;;;;;;18.38;100.00;101257.13;5011587;28;20041;-81
2022/09/07 07:54:35;;;;;;;14.10;12.77;;;;;;;18.30;100.00;101269.78;4991845;28;20053;-81
2022/09/07 07:57:04;;;;;;;16.60;12.63;;;;;;;18.23;100.00;101274.34;4992579;28;20049;-82
2022/09/07 07:59:34;;;;;;;16.70;15.02;;;;;;;18.16;100.00;101272.72;5004723;28;20057;-81
2022/09/07 08:02:05;;;;;;;14.98;13.57;;;;;;;18.07;100.00;101268.47;4982934;28;20054;-82
2022/09/07 08:04:34;;;;;;;14.77;13.25;;;;;;;18.01;100.00;101273.03;4980084;28;20037;-81
2022/09/07 08:07:03;;;;;;;17.70;15.77;;;;;;;17.96;100.00;101280.25;4988697;28;20034;-81
2022/09/07 08:09:39;;;;;;;17.08;15.48;;;;;;;17.87;100.00;101274.22;4992863;28;20052;-81
2022/09/07 08:12:11;;;;;;;15.90;14.27;;;;;;;17.77;100.00;101282.38;4984842;28;20037;-81
2022/09/07 08:14:39;;;;;;;19.27;17.33;;;;;;;17.71;100.00;101280.72;5014909;28;20033;-80
2022/09/07 08:17:11;;;;;;;19.10;16.08;;;;;;;17.68;100.00;101276.34;4984352;28;20260;-80
2022/09/07 08:19:39;;;;;;;18.05;16.33;;;;;;;17.68;100.00;101279.00;4990818;28;20049;-81
2022/09/07 08:22:09;;;;;;;18.10;16.35;;;;;;;17.68;100.00;101272.81;5023623;28;20049;-79
2022/09/07 08:24:38;;;;;;;18.35;16.42;;;;;;;17.74;100.00;101275.34;5013398;28;20044;-81
2022/09/07 08:27:06;;;;;;;21.73;18.20;;;;;;;17.79;100.00;101278.78;4995035;28;20052;-81
2022/09/07 08:29:35;;;;;;;20.20;18.05;;;;;;;17.86;100.00;101277.81;4986615;28;20049;-81
2022/09/07 08:32:05;;;;;;;19.67;17.75;;;;;;;17.91;100.00;101281.22;5013696;28;20515;-81
2022/09/07 08:34:35;;;;;;;18.83;17.15;;;;;;;17.98;100.00;101281.13;5001142;28;20045;-81
2022/09/07 08:37:04;;;;;;;19.55;17.63;;;;;;;18.01;100.00;101281.03;5022832;28;20057;-81
2022/09/07 08:39:35;;;;;;;22.00;19.67;;;;;;;18.01;100.00;101279.25;4982235;28;20120;-81
2022/09/07 08:42:16;;;;;;;19.35;16.95;;;;;;;18.00;100.00;101272.19;4980696;28;20037;-81
2022/09/07 08:44:59;;;;;;;20.50;17.77;;;;;;;18.02;100.00;101278.34;5030182;28;20376;-82
2022/09/07 08:47:49;;;;;;;18.98;17.02;;;;;;;18.09;100.00;101271.09;4985846;28;20058;-82
2022/09/07 08:50:32;;;;;;;20.58;18.30;;;;;;;18.15;100.00;101276.31;4969934;28;20073;-82
2022/09/07 08:53:13;;;;;;;19.65;16.67;;;;;;;18.20;100.00;101271.72;4981957;28;20113;-80
2022/09/07 08:55:50;;;;;;;19.17;16.40;;;;;;;18.26;100.00;101281.41;4993694;28;20514;-81
2022/09/07 08:58:42;;;;;;;18.73;16.88;;;;;;;18.28;100.00;101279.59;5000187;28;20042;-81
2022/09/07 09:01:35;;;;;;;18.98;17.02;;;;;;;18.33;100.00;101292.81;4978159;28;20279;-81
2022/09/07 09:04:13;;;;;;;17.20;15.38;;;;;;;18.36;100.00;101293.63;4995332;28;20496;-82
2022/09/07 09:07:03;;;;;;;17.45;15.82;;;;;;;18.42;100.00;101285.50;4949662;28;20046;-82
2022/09/07 09:09:47;;;;;;;18.58;16.50;;;;;;;18.49;100.00;101287.13;4985656;28;20072;-81
2022/09/07 09:12:28;;;;;;;18.20;16.10;;;;;;;18.57;100.00;101292.28;4999825;28;20362;-81
2022/09/07 09:15:29;;;;;;;18.25;16.55;;;;;;;18.66;100.00;101299.19;5008658;28;20042;-81
2022/09/07 09:18:01;;;;;;;18.08;16.35;;;;;;;18.72;100.00;101292.84;5005628;28;20045;-83
2022/09/07 09:20:52;;;;;;;18.70;16.80;;;;;;;18.78;100.00;101282.00;4994839;28;20042;-83
2022/09/07 09:23:29;;;;;;;17.73;16.13;;;;;;;18.81;100.00;101279.28;4973877;28;20049;-82
2022/09/07 09:26:03;;;;;;;17.95;15.75;;;;;;;18.86;100.00;101290.72;5003129;28;20057;-82
2022/09/07 09:28:31;;;;;;;17.60;15.80;;;;;;;18.90;100.00;101292.41;4977186;28;20122;-82
2022/09/07 09:31:00;;;;;;;18.02;16.15;;;;;;;18.96;100.00;101284.28;4978113;28;20122;-81
2022/09/07 09:33:29;;;;;;;18.83;16.92;;;;;;;19.01;100.00;101282.34;4989673;28;20061;-81
2022/09/07 09:35:59;;;;;;;18.45;16.70;;;;;;;19.08;100.00;101286.63;4976245;28;20045;-84
2022/09/07 09:38:33;;;;;;;21.30;16.95;;;;;;;19.15;100.00;101286.47;4970014;28;20042;-81
2022/09/07 09:41:13;;;;;;;17.08;15.52;;;;;;;19.17;100.00;101277.50;4992506;28;20483;-82
2022/09/07 09:43:54;;;;;;;16.92;15.05;;;;;;;19.26;100.00;101276.38;4985430;28;20050;-82
2022/09/07 09:46:30;;;;;;;21.40;19.25;;;;;;;19.36;100.00;101274.38;4996075;28;20065;-81
2022/09/07 09:49:13;;;;;;;18.58;16.65;;;;;;;19.46;100.00;101278.53;4970853;28;20055;-83
2022/09/07 09:51:52;;;;;;;19.90;16.30;;;;;;;19.55;100.00;101280.97;4981120;28;20022;-82
2022/09/07 09:54:49;;;;;;;19.27;16.35;;;;;;;19.67;100.00;101279.72;4976788;28;20390;-82
2022/09/07 09:57:54;;;;;;;22.05;17.55;;;;;;;19.76;100.00;101276.84;4977903;28;22920;-82
2022/09/07 10:00:54;;;;;;;17.83;15.90;;;;;;;19.81;100.00;101280.28;4984975;28;20061;-82
2022/09/07 10:03:43;;;;;;;18.65;16.75;;;;;;;19.84;100.00;101276.63;4963190;28;20053;-82
2022/09/07 10:06:31;;;;;;;17.20;15.50;;;;;;;19.85;100.00;101276.59;4977192;28;20054;-84
2022/09/07 10:09:01;;;;;;;17.65;15.80;;;;;;;19.89;100.00;101279.19;4970206;28;20049;-82
2022/09/07 10:11:44;;;;;;;18.35;16.55;;;;;;;19.91;100.00;101286.22;4987301;28;20038;-84
2022/09/07 10:14:45;;;;;;;18.20;16.38;;;;;;;19.88;100.00;101285.44;4992407;28;20049;-82
2022/09/07 10:17:37;;;;;;;17.83;15.95;;;;;;;19.84;100.00;101285.50;4997096;28;20435;-83
2022/09/07 10:20:14;;;;;;;18.10;14.93;;;;;;;19.85;100.00;101287.28;5004363;28;20264;-83
2022/09/07 10:22:45;;;;;;;17.52;15.70;;;;;;;19.91;100.00;101288.03;4937601;28;20062;-83
2022/09/07 10:25:39;;;;;;;18.33;15.98;;;;;;;19.96;100.00;101278.97;4991496;28;20146;-81
2022/09/07 10:28:08;;;;;;;17.10;15.30;;;;;;;19.95;100.00;101282.53;4962098;28;20509;-87
2022/09/07 10:31:11;;;;;;;16.20;14.50;;;;;;;19.93;100.00;101273.69;5009882;28;20058;-86
2022/09/07 10:34:01;;;;;;;20.42;16.15;;;;;;;19.89;100.00;101274.69;4985245;28;20049;-85
2022/09/07 10:37:04;;;;;;;19.80;16.63;;;;;;;19.86;100.00;101275.66;4997663;28;20410;-82
2022/09/07 10:39:47;;;;;;;22.08;17.25;;;;;;;19.90;100.00;101264.88;4962616;28;20513;-81
2022/09/07 10:42:28;;;;;;;19.27;16.00;;;;;;;19.97;100.00;101267.31;4990045;28;20037;-81
2022/09/07 10:45:02;;;;;;;;;;;;;;;20.04;100.00;101273.38;5010791;28;20435;-81
2022/09/07 10:48:01;;;;;;;14.85;13.15;;;;;;;20.15;100.00;101281.97;5003378;28;19921;-82
2022/09/07 10:50:31;;;;;;;14.55;13.25;;;;;;;20.23;100.00;101287.09;4991869;28;20049;-82
2022/09/07 10:53:18;;;;;;;13.27;12.00;;;;;;;20.32;100.00;101275.22;4986259;28;20180;-82
2022/09/07 10:56:32;;;;;;;13.82;12.43;;;;;;;20.40;100.00;101271.38;4989981;28;20048;-81
2022/09/07 10:59:28;;;;;;;16.95;13.38;;;;;;;20.47;100.00;101264.03;4947425;28;20057;-82
2022/09/07 11:02:41;;;;;;;13.60;12.30;;;;;;;20.61;100.00;101264.50;4995010;28;20594;-81
2022/09/07 11:05:13;;;;;;;12.75;11.45;;;;;;;20.75;100.00;101266.72;4994072;28;20072;-81
2022/09/07 11:07:53;;;;;;;14.48;13.10;;;;;;;20.86;100.00;101260.16;5000741;28;20030;-81
2022/09/07 11:10:38;;;;;;;13.68;12.27;;;;;;;20.96;100.00;101259.81;4973376;28;20511;-81
2022/09/07 11:13:14;;;;;;;13.00;11.18;;;;;;;21.12;100.00;101259.28;5006552;28;20537;-81
2022/09/07 11:15:49;;;;;;;13.23;12.02;;;;;;;21.22;100.00;101255.34;4986392;28;20056;-81
2022/09/07 11:18:31;;;;;;;12.15;10.95;;;;;;;21.37;100.00;101251.25;5002574;28;20089;-81
2022/09/07 11:21:10;;;;;;;11.32;10.18;;;;;;;21.51;100.00;101245.44;4984535;28;20046;-80
2022/09/07 11:23:54;;;;;;;11.98;10.88;;;;;;;21.58;100.00;101258.56;5003199;28;20060;-81
2022/09/07 11:26:45;;;;;;;15.98;11.95;;;;;;;21.64;100.00;101262.81;4970952;28;20431;-82
2022/09/07 11:29:24;;;;;;;11.30;10.10;;;;;;;21.66;100.00;101254.72;4967292;28;20061;-81
2022/09/07 11:32:10;;;;;;;10.52;9.45;;;;;;;21.68;100.00;101255.53;4986481;28;20061;-81
2022/09/07 11:34:54;;;;;;;10.98;9.77;;;;;;;21.71;100.00;101261.66;4997278;28;20458;-81
2022/09/07 11:37:40;;;;;;;13.40;10.20;;;;;;;21.68;100.00;101256.44;5008939;28;20054;-82
2022/09/07 11:40:33;;;;;;;12.18;10.23;;;;;;;21.65;100.00;101259.22;4986101;28;20084;-82
2022/09/07 11:43:42;;;;;;;11.18;10.15;;;;;;;21.64;100.00;101254.78;4977422;28;20491;-81
2022/09/07 11:46:18;;;;;;;11.77;10.57;;;;;;;21.67;100.00;101253.81;4957210;28;20069;-81